createdAt,value
2022-10-28T00:01:27.186Z,73.15
2022-10-28T00:03:57.150Z,55.33
2022-10-28T00:06:35.652Z,59.20
2022-10-28T00:09:09.686Z,51.42
2022-10-28T00:11:39.486Z,49.78
2022-10-28T00:14:07.779Z,52.38
2022-10-28T00:16:42.068Z,47.75
2022-10-28T00:19:12.997Z,49.90
2022-10-28T00:21:42.204Z,53.47
2022-10-28T00:24:13.817Z,57.40
2022-10-28T00:26:42.451Z,60.67
2022-10-28T00:29:13.073Z,47.45
2022-10-28T00:31:40.923Z,52.50
2022-10-28T00:34:12.186Z,43.55
2022-10-28T00:36:43.836Z,42.03
2022-10-28T00:39:18.496Z,41.72
2022-10-28T00:41:53.007Z,45.55
2022-10-28T00:44:41.606Z,44.25
2022-10-28T00:47:31.799Z,41.42
2022-10-28T00:50:10.693Z,38.47
2022-10-28T00:52:40.677Z,44.47
2022-10-28T00:55:09.066Z,40.50
2022-10-28T00:57:38.280Z,46.45
2022-10-28T01:00:07.774Z,45.88
2022-10-28T01:02:43.429Z,40.55
2022-10-28T01:05:15.347Z,40.85
2022-10-28T01:07:43.117Z,43.50
2022-10-28T01:10:11.579Z,41.67
2022-10-28T01:13:05.879Z,46.67
2022-10-28T01:16:06.973Z,39.25
2022-10-28T01:18:36.685Z,38.38
2022-10-28T01:21:27.006Z,41.80
2022-10-28T01:24:15.334Z,37.28
2022-10-28T01:26:51.962Z,34.97
2022-10-28T01:29:26.513Z,38.78
2022-10-28T01:32:30.232Z,40.25
2022-10-28T01:35:09.153Z,40.53
2022-10-28T01:37:58.322Z,40.55
2022-10-28T01:40:45.020Z,30.40
2022-10-28T01:43:26.481Z,36.08
2022-10-28T01:46:05.902Z,30.75
2022-10-28T01:48:52.212Z,31.23
2022-10-28T01:51:26.411Z,35.65
2022-10-28T01:53:57.091Z,38.47
2022-10-28T01:56:30.445Z,34.13
2022-10-28T01:59:00.654Z,35.17
2022-10-28T02:01:32.112Z,37.38
2022-10-28T02:03:59.966Z,39.30
2022-10-28T02:06:31.790Z,40.53
2022-10-28T02:09:14.992Z,37.30
2022-10-28T02:12:13.044Z,29.40
2022-10-28T02:15:30.950Z,31.20
2022-10-28T02:18:24.506Z,30.60
2022-10-28T02:21:01.727Z,36.72
2022-10-28T02:23:56.193Z,35.08
2022-10-28T02:26:46.794Z,33.42
2022-10-28T02:29:28.613Z,35.45
2022-10-28T02:32:02.480Z,30.60
2022-10-28T02:34:36.983Z,32.78
2022-10-28T02:37:13.313Z,32.88
2022-10-28T02:39:46.766Z,32.50
2022-10-28T02:42:29.272Z,31.95
2022-10-28T02:45:12.352Z,28.17
2022-10-28T02:47:43.878Z,31.83
2022-10-28T02:50:15.787Z,36.40
2022-10-28T02:52:50.106Z,37.45
2022-10-28T02:55:21.318Z,41.38
2022-10-28T02:57:49.337Z,34.63
2022-10-28T03:00:20.066Z,30.98
2022-10-28T03:02:49.893Z,33.58
2022-10-28T03:05:18.183Z,37.85
2022-10-28T03:07:45.632Z,40.17
2022-10-28T03:10:20.636Z,40.60
2022-10-28T03:12:48.066Z,32.42
2022-10-28T03:15:15.234Z,34.10
2022-10-28T03:17:42.549Z,39.10
2022-10-28T03:20:12.023Z,38.35
2022-10-28T03:22:39.323Z,38.28
2022-10-28T03:25:06.618Z,44.28
2022-10-28T03:27:34.016Z,31.90
2022-10-28T03:30:01.082Z,33.28
2022-10-28T03:32:28.488Z,34.35
2022-10-28T03:34:55.684Z,37.67
2022-10-28T03:37:22.991Z,36.63
2022-10-28T03:39:52.289Z,33.10
2022-10-28T03:42:19.773Z,33.28
2022-10-28T03:44:49.174Z,32.80
2022-10-28T03:47:16.434Z,47.90
2022-10-28T03:49:45.732Z,42.03
2022-10-28T03:52:17.576Z,39.58
2022-10-28T03:54:44.784Z,30.60
2022-10-28T03:57:12.128Z,38.88
2022-10-28T03:59:39.258Z,33.85
2022-10-28T04:02:06.779Z,34.17
2022-10-28T04:04:33.918Z,30.73
2022-10-28T04:07:04.345Z,48.25
2022-10-28T04:09:33.791Z,37.47
2022-10-28T04:12:01.215Z,37.42
2022-10-28T04:14:28.366Z,37.55
2022-10-28T04:16:58.219Z,37.25
2022-10-28T04:19:27.574Z,34.97
2022-10-28T04:21:54.855Z,46.42
2022-10-28T04:24:24.472Z,39.55
2022-10-28T04:26:53.928Z,45.97
2022-10-28T04:29:21.041Z,49.78
2022-10-28T04:31:52.273Z,52.30
2022-10-28T04:34:19.613Z,41.22
2022-10-28T04:36:46.847Z,45.55
2022-10-28T04:39:16.317Z,45.53
2022-10-28T04:41:43.662Z,44.75
2022-10-28T04:44:10.850Z,39.90
2022-10-28T04:46:38.279Z,46.80
2022-10-28T04:49:05.480Z,50.17
2022-10-28T04:51:32.704Z,35.45
2022-10-28T04:53:59.853Z,45.00
2022-10-28T04:56:31.092Z,38.92
2022-10-28T04:58:58.196Z,46.13
2022-10-28T05:01:25.936Z,43.85
2022-10-28T05:03:55.773Z,49.53
2022-10-28T05:06:23.003Z,44.17
2022-10-28T05:08:52.376Z,38.17
2022-10-28T05:11:19.608Z,49.28
2022-10-28T05:13:49.257Z,51.55
2022-10-28T05:16:16.695Z,48.85
2022-10-28T05:18:46.220Z,41.35
2022-10-28T05:21:13.643Z,48.45
2022-10-28T05:23:40.844Z,39.88
2022-10-28T05:26:10.299Z,52.60
2022-10-28T05:28:39.507Z,52.55
2022-10-28T05:31:07.007Z,46.65
2022-10-28T05:33:36.348Z,48.75
2022-10-28T05:36:04.941Z,42.35
2022-10-28T05:38:32.356Z,53.33
2022-10-28T05:40:59.813Z,52.63
2022-10-28T05:43:31.638Z,55.13
2022-10-28T05:45:59.119Z,53.15
2022-10-28T05:48:30.953Z,47.50
2022-10-28T05:51:00.255Z,56.70
2022-10-28T05:53:32.281Z,54.33
2022-10-28T05:56:03.931Z,49.95
2022-10-28T05:58:33.298Z,51.72
2022-10-28T06:01:00.887Z,47.53
2022-10-28T06:03:31.368Z,51.42
2022-10-28T06:05:59.188Z,49.67
2022-10-28T06:08:28.906Z,50.70
2022-10-28T06:10:57.727Z,51.67
2022-10-28T06:13:24.943Z,54.42
2022-10-28T06:15:54.744Z,48.63
2022-10-28T06:18:22.825Z,57.67
2022-10-28T06:20:58.158Z,58.80
2022-10-28T06:23:28.466Z,59.15
2022-10-28T06:26:00.659Z,50.47
2022-10-28T06:28:28.957Z,55.10
2022-10-28T06:31:06.133Z,54.00
2022-10-28T06:33:34.257Z,51.88
2022-10-28T06:36:04.540Z,52.83
2022-10-28T06:38:31.647Z,63.13
2022-10-28T06:41:01.925Z,60.85
2022-10-28T06:43:31.358Z,57.85
2022-10-28T06:46:04.820Z,71.63
2022-10-28T06:48:35.970Z,58.75
2022-10-28T06:51:03.403Z,65.05
2022-10-28T06:53:33.579Z,66.82
2022-10-28T06:56:05.696Z,68.90
2022-10-28T06:58:35.338Z,64.30
2022-10-28T07:01:06.248Z,67.68
2022-10-28T07:03:48.190Z,66.15
2022-10-28T07:06:17.074Z,63.22
2022-10-28T07:08:49.819Z,55.38
2022-10-28T07:11:19.388Z,64.18
2022-10-28T07:13:48.862Z,74.55
2022-10-28T07:16:16.618Z,64.40
2022-10-28T07:18:46.336Z,61.03
2022-10-28T07:21:18.402Z,76.53
2022-10-28T07:23:48.433Z,60.72
2022-10-28T07:26:15.851Z,75.78
2022-10-28T07:28:47.660Z,73.40
2022-10-28T07:31:17.847Z,67.13
2022-10-28T07:33:45.303Z,72.50
2022-10-28T07:36:15.074Z,73.00
2022-10-28T07:38:42.269Z,65.90
2022-10-28T07:41:14.058Z,69.35
2022-10-28T07:43:43.305Z,65.55
2022-10-28T07:46:15.229Z,67.68
2022-10-28T07:48:42.337Z,74.15
2022-10-28T07:51:12.091Z,80.25
2022-10-28T07:53:39.688Z,72.20
2022-10-28T07:56:13.694Z,68.38
2022-10-28T07:58:44.286Z,67.75
2022-10-28T08:01:15.587Z,73.88
2022-10-28T08:03:43.330Z,69.82
2022-10-28T08:06:19.321Z,62.08
2022-10-28T08:08:52.733Z,65.88
2022-10-28T08:11:25.870Z,69.70
2022-10-28T08:13:57.425Z,65.00
2022-10-28T08:16:24.942Z,57.60
2022-10-28T08:18:53.245Z,60.78
2022-10-28T08:21:20.936Z,61.67
2022-10-28T08:23:48.237Z,69.03
2022-10-28T08:26:17.334Z,71.03
2022-10-28T08:28:51.493Z,70.30
2022-10-28T08:31:23.484Z,67.50
2022-10-28T08:33:53.252Z,55.25
2022-10-28T08:36:23.669Z,57.80
2022-10-28T08:38:50.979Z,55.95
2022-10-28T08:41:38.617Z,53.38
2022-10-28T08:44:20.419Z,51.83
2022-10-28T08:49:39.358Z,43.85
2022-10-28T08:52:25.842Z,45.88
2022-10-28T08:55:00.789Z,47.38
2022-10-28T08:57:51.043Z,43.72
2022-10-28T09:00:46.021Z,43.13
2022-10-28T09:03:22.363Z,46.92
2022-10-28T09:05:56.255Z,40.85
2022-10-28T09:08:28.763Z,49.78
2022-10-28T09:11:10.891Z,37.28
2022-10-28T09:13:52.623Z,46.72
2022-10-28T09:16:54.879Z,45.05
2022-10-28T09:19:50.342Z,39.90
2022-10-28T09:22:21.129Z,42.78
2022-10-28T09:24:53.021Z,42.05
2022-10-28T09:27:51.403Z,37.03
2022-10-28T09:30:48.109Z,43.25
2022-10-28T09:33:47.892Z,41.17
2022-10-28T09:36:25.284Z,39.83
2022-10-28T09:38:58.732Z,32.17
2022-10-28T09:41:40.354Z,33.22
2022-10-28T09:44:28.487Z,30.60
2022-10-28T09:46:59.375Z,32.38
2022-10-28T09:49:34.915Z,34.97
2022-10-28T09:52:08.776Z,30.25
2022-10-28T09:54:40.209Z,37.60
2022-10-28T09:57:08.756Z,27.85
2022-10-28T09:59:37.014Z,29.90
2022-10-28T10:02:26.024Z,33.85
2022-10-28T10:05:01.025Z,37.97
2022-10-28T10:07:40.986Z,27.58
2022-10-28T10:10:28.263Z,25.83
2022-10-28T10:13:02.884Z,29.95
2022-10-28T10:15:35.160Z,34.05
2022-10-28T10:18:06.057Z,25.83
2022-10-28T10:20:46.665Z,41.75
2022-10-28T10:23:28.407Z,25.88
2022-10-28T10:26:06.867Z,29.27
2022-10-28T10:28:42.888Z,27.95
2022-10-28T10:31:22.042Z,22.70
2022-10-28T10:33:52.003Z,30.20
2022-10-28T10:36:23.682Z,26.42
2022-10-28T10:38:57.752Z,25.42
2022-10-28T10:41:42.337Z,28.55
2022-10-28T10:44:22.000Z,22.60
2022-10-28T10:46:55.303Z,22.98
2022-10-28T10:49:25.045Z,25.73
2022-10-28T10:51:56.691Z,23.42
2022-10-28T10:54:30.158Z,23.85
2022-10-28T10:57:17.017Z,19.40
2022-10-28T10:59:49.602Z,22.95
2022-10-28T11:02:32.665Z,20.33
2022-10-28T11:05:06.479Z,22.67
2022-10-28T11:07:45.841Z,22.60
2022-10-28T11:10:28.144Z,19.35
2022-10-28T11:13:03.938Z,19.25
2022-10-28T11:15:34.980Z,14.68
2022-10-28T11:18:16.922Z,16.90
2022-10-28T11:21:00.208Z,17.15
2022-10-28T11:23:51.704Z,18.10
2022-10-28T11:26:21.720Z,11.97
2022-10-28T11:29:00.090Z,15.23
2022-10-28T11:31:51.621Z,14.05
2022-10-28T11:34:25.705Z,14.07
2022-10-28T11:37:10.551Z,12.82
2022-10-28T11:39:44.148Z,17.75
2022-10-28T11:42:34.973Z,23.50
2022-10-28T11:45:29.249Z,15.57
2022-10-28T11:48:14.986Z,16.85
2022-10-28T11:50:59.375Z,16.45
2022-10-28T11:54:05.006Z,15.35
2022-10-28T11:57:01.657Z,18.45
2022-10-28T12:00:09.621Z,16.15
2022-10-28T12:02:58.255Z,16.25
2022-10-28T12:05:53.475Z,14.00
2022-10-28T12:08:26.704Z,17.42
2022-10-28T12:11:19.344Z,14.52
2022-10-28T12:14:16.403Z,13.73
2022-10-28T12:17:12.969Z,15.93
2022-10-28T12:20:04.675Z,14.23
2022-10-28T12:22:49.405Z,13.77
2022-10-28T12:25:25.540Z,13.77
2022-10-28T12:27:57.537Z,12.02
2022-10-28T12:30:31.896Z,10.73
2022-10-28T12:33:15.954Z,11.07
2022-10-28T12:36:12.309Z,14.20
2022-10-28T12:38:49.248Z,15.00
2022-10-28T12:41:22.506Z,11.55
2022-10-28T12:44:04.570Z,10.93
2022-10-28T12:50:00.194Z,14.65
2022-10-28T12:53:01.358Z,10.80
2022-10-28T12:55:32.132Z,12.05
2022-10-28T12:58:22.263Z,17.08
2022-10-28T13:00:55.601Z,10.90
2022-10-28T13:03:24.920Z,9.63
2022-10-28T13:05:57.108Z,12.07
2022-10-28T13:11:58.858Z,12.00
2022-10-28T13:14:58.519Z,13.25
2022-10-28T13:17:52.843Z,11.25
2022-10-28T13:20:26.421Z,16.08
2022-10-28T13:23:31.994Z,10.80
2022-10-28T13:26:26.872Z,15.55
2022-10-28T13:29:02.286Z,17.50
2022-10-28T13:31:45.498Z,23.10
2022-10-28T13:34:17.911Z,17.20
2022-10-28T13:36:58.125Z,18.85
2022-10-28T13:39:39.923Z,12.85
2022-10-28T13:42:12.835Z,13.75
2022-10-28T13:45:02.263Z,13.50
2022-10-28T13:47:34.166Z,9.65
2022-10-28T13:50:08.804Z,12.20
2022-10-28T13:52:44.290Z,84.13
2022-10-28T13:55:26.490Z,21.80
2022-10-28T13:58:05.091Z,9.65
2022-10-28T14:00:37.698Z,7.50
2022-10-28T14:03:17.340Z,8.35
2022-10-28T14:05:45.060Z,8.65
2022-10-28T14:08:24.511Z,9.95
2022-10-28T14:11:22.766Z,8.75
2022-10-28T14:13:55.684Z,10.40
2022-10-28T14:16:39.229Z,13.40
2022-10-28T14:19:10.307Z,7.28
2022-10-28T14:22:02.515Z,6.28
2022-10-28T14:24:32.134Z,8.75
2022-10-28T14:27:12.249Z,7.93
2022-10-28T14:30:04.520Z,13.52
2022-10-28T14:32:32.255Z,6.65
2022-10-28T14:35:02.471Z,6.13
2022-10-28T14:38:01.785Z,17.27
2022-10-28T14:40:55.455Z,6.97
2022-10-28T14:43:30.781Z,8.10
2022-10-28T14:46:04.607Z,8.63
2022-10-28T14:48:44.765Z,7.32
2022-10-28T14:51:25.453Z,9.80
2022-10-28T14:53:58.333Z,8.07
2022-10-28T14:56:29.187Z,7.85
2022-10-28T14:59:23.445Z,8.05
2022-10-28T15:01:59.681Z,13.70
2022-10-28T15:04:28.279Z,8.75
2022-10-28T15:06:56.805Z,12.40
2022-10-28T15:09:28.898Z,12.65
2022-10-28T15:12:06.583Z,7.43
2022-10-28T15:14:42.516Z,8.68
2022-10-28T15:17:28.420Z,7.45
2022-10-28T15:19:58.495Z,12.85
2022-10-28T15:22:32.215Z,12.68
2022-10-28T15:25:05.376Z,15.27
2022-10-28T15:27:36.642Z,10.40
2022-10-28T15:30:24.877Z,18.67
2022-10-28T15:32:54.534Z,14.25
2022-10-28T15:35:30.553Z,17.05
2022-10-28T15:38:02.106Z,17.80
2022-10-28T15:40:34.312Z,16.15
2022-10-28T15:43:18.908Z,12.65
2022-10-28T15:45:54.170Z,12.45
2022-10-28T15:48:27.813Z,20.77
2022-10-28T15:51:16.668Z,19.90
2022-10-28T15:53:47.980Z,16.55
2022-10-28T15:56:15.012Z,14.50
2022-10-28T15:58:45.209Z,18.95
2022-10-28T16:01:35.693Z,21.77
2022-10-28T16:04:25.181Z,21.73
2022-10-28T16:06:58.103Z,20.10
2022-10-28T16:09:33.018Z,18.25
2022-10-28T16:12:21.345Z,22.77
2022-10-28T16:14:56.128Z,25.63
2022-10-28T16:17:27.118Z,18.45
2022-10-28T16:20:02.357Z,13.23
2022-10-28T16:22:33.797Z,15.88
2022-10-28T16:25:01.229Z,15.13
2022-10-28T16:27:31.998Z,21.98
2022-10-28T16:30:01.816Z,15.93
2022-10-28T16:32:54.922Z,20.73
2022-10-28T16:35:24.355Z,19.42
2022-10-28T16:37:55.823Z,16.35
2022-10-28T16:40:50.239Z,21.00
2022-10-28T16:43:21.143Z,15.65
2022-10-28T16:45:54.648Z,13.85
2022-10-28T16:48:24.858Z,17.98
2022-10-28T16:50:55.198Z,33.75
2022-10-28T16:53:25.169Z,24.42
2022-10-28T16:55:54.197Z,19.25
2022-10-28T16:58:24.615Z,15.43
2022-10-28T17:00:59.689Z,23.83
2022-10-28T17:03:29.317Z,17.13
2022-10-28T17:05:56.720Z,21.92
2022-10-28T17:08:42.523Z,22.55
2022-10-28T17:11:16.697Z,18.40
2022-10-28T17:13:46.380Z,29.08
2022-10-28T17:16:13.969Z,26.15
2022-10-28T17:18:44.244Z,29.02
2022-10-28T17:21:11.642Z,19.55
2022-10-28T17:23:40.003Z,20.15
2022-10-28T17:26:07.476Z,20.38
2022-10-28T17:28:34.615Z,15.15
2022-10-28T17:31:08.653Z,17.75
2022-10-28T17:33:36.296Z,17.67
2022-10-28T17:36:05.995Z,17.10
2022-10-28T17:41:03.267Z,53.80
2022-10-28T17:43:30.555Z,33.17
2022-10-28T17:46:06.041Z,37.75
2022-10-28T17:48:36.697Z,28.45
2022-10-28T17:51:06.677Z,24.60
2022-10-28T17:53:33.900Z,30.83
2022-10-28T17:56:04.927Z,26.77
2022-10-28T17:58:35.171Z,24.05
2022-10-28T18:01:05.630Z,26.08
2022-10-28T18:03:38.244Z,26.73
2022-10-28T18:06:13.577Z,36.85
2022-10-28T18:08:45.039Z,56.38
2022-10-28T18:11:14.747Z,38.78
2022-10-28T18:13:49.024Z,34.70
2022-10-28T18:16:24.333Z,33.30
2022-10-28T18:18:53.375Z,35.45
2022-10-28T18:21:22.852Z,31.60
2022-10-28T18:23:54.091Z,31.45
2022-10-28T18:26:21.886Z,41.08
2022-10-28T18:28:51.497Z,44.92
2022-10-28T18:31:20.418Z,35.72
2022-10-28T18:33:52.619Z,36.15
2022-10-28T18:36:23.790Z,33.92
2022-10-28T18:38:53.817Z,35.55
2022-10-28T18:41:23.712Z,32.20
2022-10-28T18:43:56.978Z,31.88
2022-10-28T18:46:25.625Z,28.05
2022-10-28T18:51:28.136Z,24.88
2022-10-28T18:53:57.646Z,28.95
2022-10-28T18:56:31.246Z,24.70
2022-10-28T18:59:03.473Z,25.25
2022-10-28T19:01:31.940Z,25.42
2022-10-28T19:04:04.297Z,58.05
2022-10-28T19:06:40.152Z,32.13
2022-10-28T19:09:10.104Z,26.48
2022-10-28T19:11:37.568Z,36.80
2022-10-28T19:14:10.021Z,29.73
2022-10-28T19:16:39.479Z,28.42
2022-10-28T19:19:07.096Z,28.23
2022-10-28T19:21:37.472Z,24.33
2022-10-28T19:24:05.415Z,34.38
2022-10-28T19:26:35.652Z,28.48
2022-10-28T19:29:08.135Z,29.55
2022-10-28T19:31:40.756Z,45.35
2022-10-28T19:34:16.380Z,29.17
2022-10-28T19:36:46.034Z,33.30
2022-10-28T19:39:13.410Z,30.23
2022-10-28T19:41:40.911Z,25.42
2022-10-28T19:44:08.581Z,21.70
2022-10-28T19:46:38.225Z,19.25
2022-10-28T19:49:07.873Z,28.55
2022-10-28T19:51:38.557Z,31.20
2022-10-28T19:54:11.136Z,32.10
2022-10-28T19:56:39.229Z,35.03
2022-10-28T19:59:09.181Z,26.98
2022-10-28T20:01:38.889Z,24.58
2022-10-28T20:04:10.062Z,28.92
2022-10-28T20:06:40.897Z,62.03
2022-10-28T20:09:11.537Z,34.97
2022-10-28T20:11:39.459Z,21.77
2022-10-28T20:14:13.918Z,27.90
2022-10-28T20:16:46.253Z,17.17
2022-10-28T20:19:15.069Z,22.58
2022-10-28T20:21:45.183Z,18.73
2022-10-28T20:24:22.362Z,17.50
2022-10-28T20:26:50.034Z,18.80
2022-10-28T20:29:19.457Z,21.25
2022-10-28T20:31:53.912Z,19.40
2022-10-28T20:34:28.570Z,20.92
2022-10-28T20:37:03.052Z,20.33
2022-10-28T20:39:32.895Z,16.70
2022-10-28T20:42:00.122Z,16.90
2022-10-28T20:44:29.741Z,18.20
2022-10-28T20:46:57.073Z,15.70
2022-10-28T20:49:24.441Z,19.70
2022-10-28T20:51:55.207Z,18.48
2022-10-28T20:54:27.877Z,19.65
2022-10-28T20:57:03.100Z,15.18
2022-10-28T20:59:35.828Z,18.92
2022-10-28T21:02:02.987Z,18.98
2022-10-28T21:04:30.432Z,20.17
2022-10-28T21:06:57.493Z,18.33
2022-10-28T21:09:27.101Z,19.40
2022-10-28T21:11:59.562Z,23.05
2022-10-28T21:14:26.908Z,21.80
2022-10-28T21:16:54.113Z,16.95
2022-10-28T21:19:21.655Z,17.13
2022-10-28T21:21:48.760Z,21.88
2022-10-28T21:24:16.041Z,19.40
2022-10-28T21:26:46.061Z,20.45
2022-10-28T21:29:17.999Z,15.23
2022-10-28T21:31:45.164Z,20.20
2022-10-28T21:34:17.193Z,22.85
2022-10-28T21:36:49.001Z,17.50
2022-10-28T21:39:18.965Z,19.38
2022-10-28T21:41:48.940Z,22.55
2022-10-28T21:44:16.340Z,17.65
2022-10-28T21:46:43.450Z,15.20
2022-10-28T21:49:13.163Z,18.50
2022-10-28T21:51:45.230Z,15.07
2022-10-28T21:54:16.882Z,18.75
2022-10-28T21:56:45.155Z,21.27
2022-10-28T21:59:12.396Z,17.20
2022-10-28T22:01:42.030Z,19.50
2022-10-28T22:04:11.697Z,22.60
2022-10-28T22:06:38.983Z,20.40
2022-10-28T22:09:06.100Z,16.05
2022-10-28T22:11:33.435Z,21.17
2022-10-28T22:14:04.683Z,20.67
2022-10-28T22:16:35.068Z,21.48
2022-10-28T22:19:08.037Z,20.02
2022-10-28T22:21:40.437Z,17.98
2022-10-28T22:24:08.045Z,17.20
2022-10-28T22:26:37.321Z,16.15
2022-10-28T22:29:05.001Z,17.42
2022-10-28T22:31:34.513Z,15.38
2022-10-28T22:34:08.713Z,21.48
2022-10-28T22:36:36.927Z,24.73
2022-10-28T22:39:06.729Z,15.95
2022-10-28T22:44:04.870Z,18.40
2022-10-28T22:46:36.661Z,14.85
2022-10-28T22:49:07.021Z,17.92
2022-10-28T22:51:36.680Z,16.45
2022-10-28T22:54:04.273Z,21.08
2022-10-28T22:56:33.507Z,17.55
2022-10-28T22:59:02.028Z,19.77
2022-10-28T23:01:32.311Z,18.35
2022-10-28T23:04:08.965Z,23.05
2022-10-28T23:06:36.168Z,21.27
2022-10-28T23:09:03.582Z,20.30
2022-10-28T23:11:35.688Z,17.33
2022-10-28T23:14:05.212Z,15.80
2022-10-28T23:16:32.573Z,16.50
2022-10-28T23:19:02.816Z,18.63
2022-10-28T23:21:32.306Z,11.00
2022-10-28T23:24:00.662Z,17.27
2022-10-28T23:26:29.605Z,14.48
2022-10-28T23:28:59.222Z,16.67
2022-10-28T23:31:27.411Z,13.95
2022-10-28T23:33:59.118Z,17.83
2022-10-28T23:36:26.499Z,15.38
2022-10-28T23:38:56.568Z,20.50
2022-10-28T23:41:23.728Z,16.13
2022-10-28T23:43:51.173Z,13.00
2022-10-28T23:46:18.623Z,13.38
2022-10-28T23:48:48.146Z,19.20
2022-10-28T23:51:15.616Z,20.25
2022-10-28T23:53:42.665Z,13.80
2022-10-28T23:56:11.963Z,10.90
2022-10-28T23:58:41.951Z,16.15
